sensor_id;sensor_type;location;lat;lon;timestamp;pressure;altitude;pressure_sealevel;temperature;humidity
7180;BME280;3631;42.152;24.756;2023-03-23T00:02:23;99383.84;;;10.71;100.00
7180;BME280;3631;42.152;24.756;2023-03-23T00:05:17;99383.84;;;10.71;100.00
7180;BME280;3631;42.152;24.756;2023-03-23T00:08:21;99386.16;;;10.80;100.00
7180;BME280;3631;42.152;24.756;2023-03-23T00:14:15;99380.41;;;10.70;100.00
7180;BME280;3631;42.152;24.756;2023-03-23T00:17:30;99376.78;;;10.74;100.00
7180;BME280;3631;42.152;24.756;2023-03-23T00:20:28;99384.78;;;10.68;100.00
7180;BME280;3631;42.152;24.756;2023-03-23T00:23:32;99385.63;;;10.69;100.00
7180;BME280;3631;42.152;24.756;2023-03-23T00:26:23;99380.66;;;10.61;100.00
7180;BME280;3631;42.152;24.756;2023-03-23T00:29:29;99378.19;;;10.58;100.00
7180;BME280;3631;42.152;24.756;2023-03-23T00:33:09;99385.19;;;10.54;100.00
7180;BME280;3631;42.152;24.756;2023-03-23T00:36:06;99373.81;;;10.60;100.00
7180;BME280;3631;42.152;24.756;2023-03-23T00:38:57;99384.28;;;10.57;100.00
7180;BME280;3631;42.152;24.756;2023-03-23T00:41:45;99377.66;;;10.47;100.00
7180;BME280;3631;42.152;24.756;2023-03-23T00:45:11;99364.84;;;10.41;100.00
7180;BME280;3631;42.152;24.756;2023-03-23T00:48:11;99360.94;;;10.28;100.00
7180;BME280;3631;42.152;24.756;2023-03-23T00:51:05;99370.25;;;10.35;100.00
7180;BME280;3631;42.152;24.756;2023-03-23T00:53:53;99365.66;;;10.43;100.00
7180;BME280;3631;42.152;24.756;2023-03-23T00:56:46;99360.31;;;10.49;100.00
7180;BME280;3631;42.152;24.756;2023-03-23T01:00:01;99367.97;;;10.52;100.00
7180;BME280;3631;42.152;24.756;2023-03-23T01:03:05;99361.16;;;10.49;100.00
7180;BME280;3631;42.152;24.756;2023-03-23T01:06:09;99354.44;;;10.42;100.00
7180;BME280;3631;42.152;24.756;2023-03-23T01:09:04;99360.47;;;10.43;100.00
7180;BME280;3631;42.152;24.756;2023-03-23T01:12:09;99364.06;;;10.39;100.00
7180;BME280;3631;42.152;24.756;2023-03-23T01:15:12;99358.28;;;10.29;100.00
7180;BME280;3631;42.152;24.756;2023-03-23T01:18:03;99367.97;;;10.24;100.00
7180;BME280;3631;42.152;24.756;2023-03-23T01:24:09;99361.13;;;10.22;100.00
7180;BME280;3631;42.152;24.756;2023-03-23T01:27:04;99362.69;;;10.27;100.00
7180;BME280;3631;42.152;24.756;2023-03-23T01:30:09;99358.09;;;10.06;100.00
7180;BME280;3631;42.152;24.756;2023-03-23T01:33:10;99370.31;;;10.02;100.00
7180;BME280;3631;42.152;24.756;2023-03-23T01:36:10;99372.91;;;10.02;100.00
7180;BME280;3631;42.152;24.756;2023-03-23T01:39:16;99370.41;;;9.99;100.00
7180;BME280;3631;42.152;24.756;2023-03-23T01:42:08;99370.22;;;10.05;100.00
7180;BME280;3631;42.152;24.756;2023-03-23T01:48:23;99360.69;;;10.06;100.00
7180;BME280;3631;42.152;24.756;2023-03-23T01:51:18;99365.97;;;10.03;100.00
7180;BME280;3631;42.152;24.756;2023-03-23T01:54:24;99362.50;;;10.04;100.00
7180;BME280;3631;42.152;24.756;2023-03-23T01:57:25;99352.81;;;10.09;100.00
7180;BME280;3631;42.152;24.756;2023-03-23T02:00:15;99365.50;;;10.19;100.00
7180;BME280;3631;42.152;24.756;2023-03-23T02:03:09;99366.41;;;10.18;100.00
7180;BME280;3631;42.152;24.756;2023-03-23T02:06:05;99358.25;;;10.01;100.00
7180;BME280;3631;42.152;24.756;2023-03-23T02:09:02;99364.31;;;10.00;100.00
7180;BME280;3631;42.152;24.756;2023-03-23T02:12:09;99369.91;;;9.87;100.00
7180;BME280;3631;42.152;24.756;2023-03-23T02:14:59;99368.34;;;9.81;100.00
7180;BME280;3631;42.152;24.756;2023-03-23T02:18:09;99375.97;;;9.86;100.00
7180;BME280;3631;42.152;24.756;2023-03-23T02:25:10;99376.72;;;9.91;100.00
7180;BME280;3631;42.152;24.756;2023-03-23T02:28:29;99375.59;;;9.99;100.00
7180;BME280;3631;42.152;24.756;2023-03-23T02:31:44;99361.84;;;9.96;100.00
7180;BME280;3631;42.152;24.756;2023-03-23T02:35:04;99361.31;;;9.84;100.00
7180;BME280;3631;42.152;24.756;2023-03-23T02:38:04;99365.38;;;9.93;100.00
7180;BME280;3631;42.152;24.756;2023-03-23T02:41:14;99368.41;;;9.78;100.00
7180;BME280;3631;42.152;24.756;2023-03-23T02:44:15;99352.91;;;9.76;100.00
7180;BME280;3631;42.152;24.756;2023-03-23T02:47:16;99367.25;;;9.88;100.00
7180;BME280;3631;42.152;24.756;2023-03-23T02:50:27;99376.81;;;9.86;100.00
7180;BME280;3631;42.152;24.756;2023-03-23T02:53:30;99375.19;;;9.82;100.00
7180;BME280;3631;42.152;24.756;2023-03-23T02:56:43;99374.41;;;9.80;100.00
7180;BME280;3631;42.152;24.756;2023-03-23T02:59:36;99380.56;;;9.76;100.00
7180;BME280;3631;42.152;24.756;2023-03-23T03:02:29;99389.38;;;9.70;100.00
7180;BME280;3631;42.152;24.756;2023-03-23T03:08:44;99391.31;;;9.62;100.00
7180;BME280;3631;42.152;24.756;2023-03-23T03:11:44;99393.63;;;9.71;100.00
7180;BME280;3631;42.152;24.756;2023-03-23T03:14:57;99390.34;;;9.66;100.00
7180;BME280;3631;42.152;24.756;2023-03-23T03:17:53;99389.50;;;9.66;100.00
7180;BME280;3631;42.152;24.756;2023-03-23T03:20:57;99391.25;;;9.64;100.00
7180;BME280;3631;42.152;24.756;2023-03-23T03:23:56;99391.84;;;9.42;100.00
7180;BME280;3631;42.152;24.756;2023-03-23T03:26:50;99403.69;;;9.51;100.00
7180;BME280;3631;42.152;24.756;2023-03-23T03:29:56;99402.59;;;9.60;100.00
7180;BME280;3631;42.152;24.756;2023-03-23T03:33:03;99407.94;;;9.54;100.00
7180;BME280;3631;42.152;24.756;2023-03-23T03:35:58;99403.16;;;9.38;100.00
7180;BME280;3631;42.152;24.756;2023-03-23T03:39:06;99415.38;;;9.33;100.00
7180;BME280;3631;42.152;24.756;2023-03-23T03:42:07;99412.94;;;9.27;100.00
7180;BME280;3631;42.152;24.756;2023-03-23T03:44:40;99417.91;;;9.36;100.00
7180;BME280;3631;42.152;24.756;2023-03-23T03:47:59;99405.75;;;9.38;100.00
7180;BME280;3631;42.152;24.756;2023-03-23T03:50:53;99410.88;;;9.40;100.00
7180;BME280;3631;42.152;24.756;2023-03-23T03:53:56;99408.44;;;9.35;100.00
7180;BME280;3631;42.152;24.756;2023-03-23T03:56:51;99408.66;;;9.26;100.00
7180;BME280;3631;42.152;24.756;2023-03-23T03:59:49;99410.44;;;9.24;100.00
7180;BME280;3631;42.152;24.756;2023-03-23T04:02:50;99407.03;;;9.22;100.00
7180;BME280;3631;42.152;24.756;2023-03-23T04:05:54;99418.63;;;9.07;100.00
7180;BME280;3631;42.152;24.756;2023-03-23T04:08:24;99415.19;;;9.07;100.00
7180;BME280;3631;42.152;24.756;2023-03-23T04:11:03;99412.88;;;8.95;100.00
7180;BME280;3631;42.152;24.756;2023-03-23T04:13:39;99411.19;;;8.94;100.00
7180;BME280;3631;42.152;24.756;2023-03-23T04:16:10;99422.25;;;9.00;100.00
7180;BME280;3631;42.152;24.756;2023-03-23T04:18:55;99413.31;;;9.14;100.00
7180;BME280;3631;42.152;24.756;2023-03-23T04:21:39;99410.81;;;9.09;100.00
7180;BME280;3631;42.152;24.756;2023-03-23T04:24:24;99413.44;;;9.07;100.00
7180;BME280;3631;42.152;24.756;2023-03-23T04:27:01;99421.41;;;9.00;100.00
7180;BME280;3631;42.152;24.756;2023-03-23T04:29:40;99417.16;;;8.96;100.00
7180;BME280;3631;42.152;24.756;2023-03-23T04:32:17;99422.38;;;8.94;100.00
7180;BME280;3631;42.152;24.756;2023-03-23T04:34:49;99423.81;;;9.06;100.00
7180;BME280;3631;42.152;24.756;2023-03-23T04:37:26;99418.84;;;8.98;100.00
7180;BME280;3631;42.152;24.756;2023-03-23T04:40:09;99415.34;;;9.01;100.00
7180;BME280;3631;42.152;24.756;2023-03-23T04:42:46;99419.66;;;9.00;100.00
7180;BME280;3631;42.152;24.756;2023-03-23T04:45:28;99429.78;;;9.09;100.00
7180;BME280;3631;42.152;24.756;2023-03-23T04:48:15;99427.28;;;9.06;100.00
7180;BME280;3631;42.152;24.756;2023-03-23T04:51:06;99435.16;;;9.02;100.00
7180;BME280;3631;42.152;24.756;2023-03-23T04:53:44;99416.28;;;8.97;100.00
7180;BME280;3631;42.152;24.756;2023-03-23T04:56:28;99434.72;;;9.20;100.00
7180;BME280;3631;42.152;24.756;2023-03-23T04:59:13;99436.88;;;9.37;100.00
7180;BME280;3631;42.152;24.756;2023-03-23T05:01:50;99431.50;;;9.44;100.00
7180;BME280;3631;42.152;24.756;2023-03-23T05:04:28;99432.09;;;9.56;100.00
7180;BME280;3631;42.152;24.756;2023-03-23T05:07:05;99433.84;;;9.54;100.00
7180;BME280;3631;42.152;24.756;2023-03-23T05:09:58;99431.88;;;9.63;100.00
7180;BME280;3631;42.152;24.756;2023-03-23T05:13:05;99442.69;;;9.79;100.00
7180;BME280;3631;42.152;24.756;2023-03-23T05:15:53;99433.06;;;9.82;100.00
7180;BME280;3631;42.152;24.756;2023-03-23T05:18:36;99438.81;;;9.94;100.00
7180;BME280;3631;42.152;24.756;2023-03-23T05:21:13;99438.19;;;9.86;100.00
7180;BME280;3631;42.152;24.756;2023-03-23T05:23:51;99444.66;;;10.02;100.00
7180;BME280;3631;42.152;24.756;2023-03-23T05:26:27;99439.66;;;9.94;100.00
7180;BME280;3631;42.152;24.756;2023-03-23T05:28:58;99454.50;;;9.89;100.00
7180;BME280;3631;42.152;24.756;2023-03-23T05:31:35;99456.84;;;9.98;100.00
7180;BME280;3631;42.152;24.756;2023-03-23T05:34:12;99457.81;;;9.94;100.00
7180;BME280;3631;42.152;24.756;2023-03-23T05:36:52;99454.31;;;9.97;100.00
7180;BME280;3631;42.152;24.756;2023-03-23T05:39:43;99458.56;;;9.99;100.00
7180;BME280;3631;42.152;24.756;2023-03-23T05:42:40;99465.38;;;10.03;100.00
7180;BME280;3631;42.152;24.756;2023-03-23T05:45:23;99472.34;;;10.01;100.00
7180;BME280;3631;42.152;24.756;2023-03-23T05:47:54;99482.66;;;10.03;100.00
7180;BME280;3631;42.152;24.756;2023-03-23T05:50:37;99483.72;;;9.96;100.00
7180;BME280;3631;42.152;24.756;2023-03-23T05:53:53;99472.38;;;10.00;100.00
7180;BME280;3631;42.152;24.756;2023-03-23T05:57:06;99486.13;;;10.03;100.00
7180;BME280;3631;42.152;24.756;2023-03-23T05:59:42;99479.44;;;9.93;100.00
7180;BME280;3631;42.152;24.756;2023-03-23T06:02:10;99483.66;;;9.97;100.00
7180;BME280;3631;42.152;24.756;2023-03-23T06:04:44;99498.31;;;10.00;100.00
7180;BME280;3631;42.152;24.756;2023-03-23T06:07:15;99494.53;;;10.11;100.00
7180;BME280;3631;42.152;24.756;2023-03-23T06:09:47;99503.16;;;10.12;100.00
7180;BME280;3631;42.152;24.756;2023-03-23T06:12:28;99501.56;;;10.06;100.00
7180;BME280;3631;42.152;24.756;2023-03-23T06:15:20;99489.34;;;10.11;100.00
7180;BME280;3631;42.152;24.756;2023-03-23T06:18:03;99502.28;;;10.13;100.00
7180;BME280;3631;42.152;24.756;2023-03-23T06:20:37;99502.63;;;10.32;100.00
7180;BME280;3631;42.152;24.756;2023-03-23T06:23:18;99508.22;;;10.49;100.00
7180;BME280;3631;42.152;24.756;2023-03-23T06:26:07;99501.09;;;10.55;100.00
7180;BME280;3631;42.152;24.756;2023-03-23T06:28:46;99499.44;;;10.53;100.00
7180;BME280;3631;42.152;24.756;2023-03-23T06:31:35;99505.69;;;10.75;100.00
7180;BME280;3631;42.152;24.756;2023-03-23T06:34:28;99504.75;;;10.78;100.00
7180;BME280;3631;42.152;24.756;2023-03-23T06:37:26;99510.03;;;10.75;100.00
7180;BME280;3631;42.152;24.756;2023-03-23T06:40:27;99509.69;;;10.87;100.00
7180;BME280;3631;42.152;24.756;2023-03-23T06:43:14;99520.75;;;10.94;100.00
7180;BME280;3631;42.152;24.756;2023-03-23T06:46:07;99521.06;;;11.11;100.00
7180;BME280;3631;42.152;24.756;2023-03-23T06:49:14;99527.28;;;11.33;100.00
7180;BME280;3631;42.152;24.756;2023-03-23T06:52:24;99525.16;;;12.23;100.00
7180;BME280;3631;42.152;24.756;2023-03-23T06:55:24;99522.78;;;13.32;100.00
7180;BME280;3631;42.152;24.756;2023-03-23T06:58:24;99538.72;;;14.29;100.00
7180;BME280;3631;42.152;24.756;2023-03-23T07:01:36;99544.06;;;15.23;100.00
7180;BME280;3631;42.152;24.756;2023-03-23T07:04:48;99548.41;;;16.29;100.00
7180;BME280;3631;42.152;24.756;2023-03-23T07:07:44;99550.44;;;16.24;99.97
7180;BME280;3631;42.152;24.756;2023-03-23T07:10:15;99550.72;;;15.83;100.00
7180;BME280;3631;42.152;24.756;2023-03-23T07:12:55;99542.53;;;15.36;100.00
7180;BME280;3631;42.152;24.756;2023-03-23T07:15:47;99548.44;;;15.22;100.00
7180;BME280;3631;42.152;24.756;2023-03-23T07:18:43;99544.84;;;15.61;100.00
7180;BME280;3631;42.152;24.756;2023-03-23T07:21:45;99555.88;;;17.02;100.00
7180;BME280;3631;42.152;24.756;2023-03-23T07:28:15;99569.94;;;21.79;71.90
7180;BME280;3631;42.152;24.756;2023-03-23T07:31:12;99575.63;;;23.33;66.81
7180;BME280;3631;42.152;24.756;2023-03-23T07:34:09;99569.66;;;24.78;58.93
7180;BME280;3631;42.152;24.756;2023-03-23T07:37:18;99573.09;;;26.74;51.77
7180;BME280;3631;42.152;24.756;2023-03-23T07:40:15;99568.47;;;27.59;47.87
7180;BME280;3631;42.152;24.756;2023-03-23T07:43:10;99574.34;;;28.59;44.54
7180;BME280;3631;42.152;24.756;2023-03-23T07:46:08;99580.31;;;29.13;41.41
7180;BME280;3631;42.152;24.756;2023-03-23T07:49:03;99580.81;;;30.88;36.86
7180;BME280;3631;42.152;24.756;2023-03-23T07:51:44;99580.59;;;31.45;34.94
7180;BME280;3631;42.152;24.756;2023-03-23T07:54:48;99575.41;;;32.20;32.43
7180;BME280;3631;42.152;24.756;2023-03-23T07:57:38;99578.28;;;32.86;31.66
7180;BME280;3631;42.152;24.756;2023-03-23T08:01:05;99570.97;;;33.24;30.48
7180;BME280;3631;42.152;24.756;2023-03-23T08:04:13;99578.47;;;32.69;31.34
7180;BME280;3631;42.152;24.756;2023-03-23T08:07:08;99571.19;;;29.90;34.89
7180;BME280;3631;42.152;24.756;2023-03-23T08:09:59;99564.28;;;27.01;39.44
7180;BME280;3631;42.152;24.756;2023-03-23T08:13:12;99557.59;;;24.65;43.02
7180;BME280;3631;42.152;24.756;2023-03-23T08:16:01;99562.25;;;23.46;46.46
7180;BME280;3631;42.152;24.756;2023-03-23T08:18:46;99555.50;;;21.95;48.85
7180;BME280;3631;42.152;24.756;2023-03-23T08:21:24;99551.97;;;21.36;50.84
7180;BME280;3631;42.152;24.756;2023-03-23T08:24:05;99544.69;;;20.78;52.43
7180;BME280;3631;42.152;24.756;2023-03-23T08:26:55;99545.03;;;20.48;54.08
7180;BME280;3631;42.152;24.756;2023-03-23T08:30:08;99544.78;;;20.13;55.15
7180;BME280;3631;42.152;24.756;2023-03-23T08:32:54;99548.91;;;20.29;54.19
7180;BME280;3631;42.152;24.756;2023-03-23T08:35:32;99536.56;;;20.05;55.24
7180;BME280;3631;42.152;24.756;2023-03-23T08:38:26;99530.75;;;20.12;55.29
7180;BME280;3631;42.152;24.756;2023-03-23T08:41:03;99526.19;;;19.49;55.83
7180;BME280;3631;42.152;24.756;2023-03-23T08:43:48;99537.41;;;19.66;55.97
7180;BME280;3631;42.152;24.756;2023-03-23T08:46:43;99534.75;;;19.39;54.89
7180;BME280;3631;42.152;24.756;2023-03-23T08:49:34;99535.84;;;19.08;56.88
7180;BME280;3631;42.152;24.756;2023-03-23T08:52:15;99531.84;;;18.74;58.60
7180;BME280;3631;42.152;24.756;2023-03-23T08:54:48;99542.41;;;18.60;58.78
7180;BME280;3631;42.152;24.756;2023-03-23T08:57:44;99542.28;;;18.47;58.55
7180;BME280;3631;42.152;24.756;2023-03-23T09:00:35;99534.09;;;18.51;58.70
7180;BME280;3631;42.152;24.756;2023-03-23T09:03:32;99536.94;;;18.48;58.23
7180;BME280;3631;42.152;24.756;2023-03-23T09:06:35;99539.03;;;18.72;56.70
7180;BME280;3631;42.152;24.756;2023-03-23T09:12:16;99536.28;;;18.88;56.81
7180;BME280;3631;42.152;24.756;2023-03-23T09:15:08;99521.03;;;19.07;56.16
7180;BME280;3631;42.152;24.756;2023-03-23T09:18:00;99537.38;;;19.12;55.53
7180;BME280;3631;42.152;24.756;2023-03-23T09:24:03;99540.66;;;19.15;54.71
7180;BME280;3631;42.152;24.756;2023-03-23T09:26:45;99535.72;;;18.82;55.75
7180;BME280;3631;42.152;24.756;2023-03-23T09:29:40;99520.28;;;18.34;56.51
7180;BME280;3631;42.152;24.756;2023-03-23T09:32:24;99528.72;;;18.25;56.81
7180;BME280;3631;42.152;24.756;2023-03-23T09:35:13;99522.69;;;18.08;55.85
7180;BME280;3631;42.152;24.756;2023-03-23T09:38:07;99519.03;;;18.11;57.16
7180;BME280;3631;42.152;24.756;2023-03-23T09:40:55;99512.19;;;18.08;58.52
7180;BME280;3631;42.152;24.756;2023-03-23T09:43:58;99525.06;;;18.13;56.69
7180;BME280;3631;42.152;24.756;2023-03-23T09:47:05;99522.53;;;18.26;56.38
7180;BME280;3631;42.152;24.756;2023-03-23T09:50:14;99516.16;;;18.44;55.55
7180;BME280;3631;42.152;24.756;2023-03-23T09:53:08;99512.56;;;18.61;52.83
7180;BME280;3631;42.152;24.756;2023-03-23T09:56:18;99520.22;;;18.78;52.73
7180;BME280;3631;42.152;24.756;2023-03-23T09:59:23;99513.06;;;18.94;53.22
7180;BME280;3631;42.152;24.756;2023-03-23T10:02:40;99515.63;;;18.96;52.48
7180;BME280;3631;42.152;24.756;2023-03-23T10:05:41;99509.88;;;18.75;53.12
7180;BME280;3631;42.152;24.756;2023-03-23T10:08:46;99501.41;;;18.41;53.33
7180;BME280;3631;42.152;24.756;2023-03-23T10:11:46;99498.59;;;18.30;54.76
7180;BME280;3631;42.152;24.756;2023-03-23T10:15:04;99505.19;;;18.23;54.67
7180;BME280;3631;42.152;24.756;2023-03-23T10:18:10;99508.56;;;18.25;54.01
7180;BME280;3631;42.152;24.756;2023-03-23T10:21:08;99496.75;;;18.46;53.03
7180;BME280;3631;42.152;24.756;2023-03-23T10:24:08;99502.75;;;18.63;52.29
7180;BME280;3631;42.152;24.756;2023-03-23T10:27:23;99498.16;;;18.66;51.43
7180;BME280;3631;42.152;24.756;2023-03-23T10:30:27;99491.38;;;18.91;49.91
7180;BME280;3631;42.152;24.756;2023-03-23T10:33:41;99492.78;;;19.23;49.50
7180;BME280;3631;42.152;24.756;2023-03-23T10:36:34;99493.75;;;19.08;49.33
7180;BME280;3631;42.152;24.756;2023-03-23T10:39:25;99502.38;;;19.24;48.77
7180;BME280;3631;42.152;24.756;2023-03-23T10:42:10;99492.75;;;19.37;50.88
7180;BME280;3631;42.152;24.756;2023-03-23T10:45:09;99479.25;;;19.29;50.64
7180;BME280;3631;42.152;24.756;2023-03-23T10:48:04;99484.66;;;19.40;49.85
7180;BME280;3631;42.152;24.756;2023-03-23T10:50:55;99487.06;;;19.43;49.96
7180;BME280;3631;42.152;24.756;2023-03-23T10:53:51;99474.19;;;19.66;48.45
7180;BME280;3631;42.152;24.756;2023-03-23T10:56:52;99480.44;;;19.77;46.91
7180;BME280;3631;42.152;24.756;2023-03-23T11:09:59;99484.69;;;19.26;46.96
7180;BME280;3631;42.152;24.756;2023-03-23T11:12:35;99473.63;;;19.21;47.54
7180;BME280;3631;42.152;24.756;2023-03-23T11:15:29;99474.03;;;19.15;47.20
7180;BME280;3631;42.152;24.756;2023-03-23T11:18:09;99467.81;;;19.16;48.08
7180;BME280;3631;42.152;24.756;2023-03-23T11:20:48;99473.84;;;19.18;48.05
7180;BME280;3631;42.152;24.756;2023-03-23T11:23:31;99468.63;;;19.04;48.35
7180;BME280;3631;42.152;24.756;2023-03-23T11:26:14;99472.22;;;18.89;49.00
7180;BME280;3631;42.152;24.756;2023-03-23T11:29:03;99465.41;;;18.72;50.02
7180;BME280;3631;42.152;24.756;2023-03-23T11:31:44;99468.28;;;18.81;49.99
7180;BME280;3631;42.152;24.756;2023-03-23T11:34:20;99460.06;;;19.00;50.24
7180;BME280;3631;42.152;24.756;2023-03-23T11:37:00;99464.25;;;19.17;49.97
7180;BME280;3631;42.152;24.756;2023-03-23T11:39:36;99455.94;;;19.23;48.80
7180;BME280;3631;42.152;24.756;2023-03-23T11:42:27;99459.28;;;19.12;50.38
7180;BME280;3631;42.152;24.756;2023-03-23T11:45:20;99450.38;;;19.01;52.75
7180;BME280;3631;42.152;24.756;2023-03-23T11:48:21;99450.47;;;18.72;54.11
7180;BME280;3631;42.152;24.756;2023-03-23T11:51:04;99446.41;;;18.52;55.90
7180;BME280;3631;42.152;24.756;2023-03-23T11:53:47;99450.38;;;18.31;58.17
7180;BME280;3631;42.152;24.756;2023-03-23T11:56:24;99434.31;;;18.07;59.54
7180;BME280;3631;42.152;24.756;2023-03-23T11:59:15;99446.91;;;18.02;60.21
7180;BME280;3631;42.152;24.756;2023-03-23T12:01:53;99437.53;;;18.27;59.23
7180;BME280;3631;42.152;24.756;2023-03-23T12:05:02;99446.34;;;18.26;58.99
7180;BME280;3631;42.152;24.756;2023-03-23T12:07:56;99442.59;;;18.16;60.03
7180;BME280;3631;42.152;24.756;2023-03-23T12:10:43;99436.69;;;18.26;59.89
7180;BME280;3631;42.152;24.756;2023-03-23T12:13:34;99437.13;;;18.19;59.64
7180;BME280;3631;42.152;24.756;2023-03-23T12:16:32;99425.69;;;17.91;60.79
7180;BME280;3631;42.152;24.756;2023-03-23T12:19:35;99438.09;;;17.59;61.48
7180;BME280;3631;42.152;24.756;2023-03-23T12:22:24;99431.94;;;17.45;62.23
7180;BME280;3631;42.152;24.756;2023-03-23T12:25:30;99428.94;;;17.36;62.28
7180;BME280;3631;42.152;24.756;2023-03-23T12:28:28;99432.63;;;17.48;61.08
7180;BME280;3631;42.152;24.756;2023-03-23T12:31:10;99430.41;;;17.40;60.55
7180;BME280;3631;42.152;24.756;2023-03-23T12:34:01;99421.06;;;17.36;61.19
7180;BME280;3631;42.152;24.756;2023-03-23T12:37:06;99436.28;;;17.30;61.61
7180;BME280;3631;42.152;24.756;2023-03-23T12:40:08;99430.03;;;17.32;61.77
7180;BME280;3631;42.152;24.756;2023-03-23T12:43:05;99426.81;;;17.27;61.47
7180;BME280;3631;42.152;24.756;2023-03-23T12:46:06;99433.09;;;17.55;60.10
7180;BME280;3631;42.152;24.756;2023-03-23T12:48:52;99438.03;;;17.75;59.59
7180;BME280;3631;42.152;24.756;2023-03-23T12:51:58;99431.00;;;17.75;59.03
7180;BME280;3631;42.152;24.756;2023-03-23T12:54:50;99426.13;;;17.69;59.44
7180;BME280;3631;42.152;24.756;2023-03-23T12:58:01;99429.03;;;17.65;59.67
7180;BME280;3631;42.152;24.756;2023-03-23T13:01:12;99420.22;;;17.66;59.11
7180;BME280;3631;42.152;24.756;2023-03-23T13:04:23;99422.22;;;17.61;58.96
7180;BME280;3631;42.152;24.756;2023-03-23T13:07:28;99412.69;;;17.60;59.13
7180;BME280;3631;42.152;24.756;2023-03-23T13:10:29;99417.13;;;17.73;59.00
7180;BME280;3631;42.152;24.756;2023-03-23T13:13:55;99421.34;;;17.76;58.11
7180;BME280;3631;42.152;24.756;2023-03-23T13:17:10;99423.22;;;17.74;57.37
7180;BME280;3631;42.152;24.756;2023-03-23T13:23:28;99419.44;;;17.64;58.07
7180;BME280;3631;42.152;24.756;2023-03-23T13:26:32;99414.22;;;17.64;58.63
7180;BME280;3631;42.152;24.756;2023-03-23T13:29:32;99425.13;;;17.56;58.61
7180;BME280;3631;42.152;24.756;2023-03-23T13:32:47;99418.94;;;17.57;58.53
7180;BME280;3631;42.152;24.756;2023-03-23T13:35:54;99413.84;;;17.40;58.38
7180;BME280;3631;42.152;24.756;2023-03-23T13:39:04;99416.03;;;17.48;58.39
7180;BME280;3631;42.152;24.756;2023-03-23T13:42:25;99416.16;;;17.60;58.15
7180;BME280;3631;42.152;24.756;2023-03-23T13:45:51;99422.34;;;17.59;58.57
7180;BME280;3631;42.152;24.756;2023-03-23T13:48:49;99418.38;;;17.52;57.56
7180;BME280;3631;42.152;24.756;2023-03-23T13:51:57;99414.50;;;17.43;58.27
7180;BME280;3631;42.152;24.756;2023-03-23T13:55:12;99419.59;;;17.47;59.51
7180;BME280;3631;42.152;24.756;2023-03-23T13:58:28;99416.75;;;17.35;59.99
7180;BME280;3631;42.152;24.756;2023-03-23T14:01:19;99425.41;;;17.22;60.17
7180;BME280;3631;42.152;24.756;2023-03-23T14:04:18;99426.00;;;17.11;59.96
7180;BME280;3631;42.152;24.756;2023-03-23T14:07:08;99433.72;;;17.14;59.87
7180;BME280;3631;42.152;24.756;2023-03-23T14:10:20;99429.84;;;16.90;61.56
7180;BME280;3631;42.152;24.756;2023-03-23T14:13:19;99422.16;;;16.87;61.31
7180;BME280;3631;42.152;24.756;2023-03-23T14:16:25;99417.16;;;16.82;61.80
7180;BME280;3631;42.152;24.756;2023-03-23T14:19:27;99422.06;;;16.73;61.56
7180;BME280;3631;42.152;24.756;2023-03-23T14:22:44;99425.81;;;16.68;61.12
7180;BME280;3631;42.152;24.756;2023-03-23T14:29:09;99420.19;;;16.59;61.01
7180;BME280;3631;42.152;24.756;2023-03-23T14:32:06;99422.56;;;16.63;60.83
7180;BME280;3631;42.152;24.756;2023-03-23T14:34:52;99404.88;;;16.51;61.75
7180;BME280;3631;42.152;24.756;2023-03-23T14:37:51;99422.91;;;16.57;61.90
7180;BME280;3631;42.152;24.756;2023-03-23T14:40:36;99415.19;;;16.54;61.50
7180;BME280;3631;42.152;24.756;2023-03-23T14:43:15;99424.06;;;16.52;61.68
7180;BME280;3631;42.152;24.756;2023-03-23T14:46:12;99427.53;;;16.52;62.56
7180;BME280;3631;42.152;24.756;2023-03-23T14:48:51;99420.88;;;16.62;61.77
7180;BME280;3631;42.152;24.756;2023-03-23T14:51:45;99417.72;;;16.56;61.29
7180;BME280;3631;42.152;24.756;2023-03-23T14:54:38;99417.66;;;16.57;61.10
7180;BME280;3631;42.152;24.756;2023-03-23T14:57:33;99413.34;;;16.56;60.49
7180;BME280;3631;42.152;24.756;2023-03-23T15:00:16;99403.94;;;16.52;60.21
7180;BME280;3631;42.152;24.756;2023-03-23T15:03:16;99408.09;;;16.56;59.54
7180;BME280;3631;42.152;24.756;2023-03-23T15:06:09;99406.25;;;16.58;59.22
7180;BME280;3631;42.152;24.756;2023-03-23T15:09:02;99404.09;;;16.49;59.31
7180;BME280;3631;42.152;24.756;2023-03-23T15:11:39;99405.81;;;16.50;59.28
7180;BME280;3631;42.152;24.756;2023-03-23T15:14:32;99411.47;;;16.43;59.08
7180;BME280;3631;42.152;24.756;2023-03-23T15:17:27;99403.00;;;16.38;59.70
7180;BME280;3631;42.152;24.756;2023-03-23T15:20:21;99411.50;;;16.25;60.58
7180;BME280;3631;42.152;24.756;2023-03-23T15:22:54;99397.22;;;16.15;60.89
7180;BME280;3631;42.152;24.756;2023-03-23T15:25:32;99408.38;;;16.19;61.16
7180;BME280;3631;42.152;24.756;2023-03-23T15:28:22;99399.19;;;16.12;60.92
7180;BME280;3631;42.152;24.756;2023-03-23T15:31:23;99405.06;;;16.00;61.47
7180;BME280;3631;42.152;24.756;2023-03-23T15:34:31;99399.47;;;15.90;63.19
7180;BME280;3631;42.152;24.756;2023-03-23T15:47:49;99415.41;;;15.51;64.95
7180;BME280;3631;42.152;24.756;2023-03-23T15:51:08;99416.13;;;15.54;68.22
7180;BME280;3631;42.152;24.756;2023-03-23T15:54:00;99401.41;;;15.35;69.94
7180;BME280;3631;42.152;24.756;2023-03-23T15:57:01;99419.53;;;15.38;69.26
7180;BME280;3631;42.152;24.756;2023-03-23T16:00:07;99423.94;;;15.37;69.64
7180;BME280;3631;42.152;24.756;2023-03-23T16:03:25;99433.22;;;15.25;70.30
7180;BME280;3631;42.152;24.756;2023-03-23T16:06:33;99441.38;;;15.19;71.53
7180;BME280;3631;42.152;24.756;2023-03-23T16:09:30;99447.00;;;15.12;73.88
7180;BME280;3631;42.152;24.756;2023-03-23T16:15:38;99445.47;;;14.89;80.72
7180;BME280;3631;42.152;24.756;2023-03-23T16:18:42;99440.19;;;14.72;84.98
7180;BME280;3631;42.152;24.756;2023-03-23T16:21:59;99437.38;;;14.58;86.45
7180;BME280;3631;42.152;24.756;2023-03-23T16:24:29;99444.72;;;14.49;87.16
7180;BME280;3631;42.152;24.756;2023-03-23T16:27:02;99444.38;;;14.37;88.02
7180;BME280;3631;42.152;24.756;2023-03-23T16:29:44;99446.09;;;14.38;87.08
7180;BME280;3631;42.152;24.756;2023-03-23T16:32:16;99445.78;;;14.25;87.71